Time;durP1;ratioP1;P1;durP2;ratioP2;P2;SDS_P1;SDS_P2;PMS_P1;PMS_P2;Temp;Humidity;BMP_temperature;BMP_pressure;BME280_temperature;BME280_humidity;BME280_pressure;Samples;Min_cycle;Max_cycle;Signal;HPM_P1;HPM_P2
2021/08/28 07:39:20;;;;;;;;;;;;;;;;;;4971182;28;19937;-90
2021/08/28 07:41:49;;;;;;;;;;;;;;;;;;4946834;28;19937;-89
2021/08/28 07:44:17;;;;;;;;;;;;;;;;;;4964786;28;19926;-91
2021/08/28 07:46:48;;;;;;;;;;;;;;;;;;4972204;28;19944;-90
2021/08/28 07:49:24;;;;;;;;;;;;;;;;;;4954878;28;20585;-90
2021/08/28 07:51:52;;;;;;;;;;;;;;;;;;4973913;28;19926;-90
2021/08/28 07:54:22;;;;;;;;;;;;;;;;;;4955640;28;19927;-91
2021/08/28 07:56:52;;;;;;;;;;;;;;;;;;4952924;28;19926;-90
2021/08/28 07:59:22;;;;;;;;;;;;;;;;;;4955703;28;19926;-88
2021/08/28 08:01:52;;;;;;;;;;;;;;;;;;4958360;28;19930;-88
2021/08/28 08:04:21;;;;;;;;;;;;;;;;;;4970122;28;20294;-91
2021/08/28 08:07:07;;;;;;;;;;;;;;;;;;4958829;28;19933;-90
2021/08/28 08:10:00;;;;;;;;;;;;;;;;;;4946694;28;19937;-91
2021/08/28 08:12:47;;;;;;;;;;;;;;;;;;4977357;28;19930;-88
2021/08/28 08:15:34;;;;;;;;;;;;;;;;;;4981151;28;19926;-91
2021/08/28 08:18:35;;;;;;;;;;;;;;;;;;4976399;28;19937;-89
2021/08/28 08:21:25;;;;;;;;;;;;;;;;;;4960845;28;19941;-90
2021/08/28 08:24:20;;;;;;;;;;;;;;;;;;4960817;28;20401;-91
2021/08/28 08:27:08;;;;;;;;;;;;;;;;;;4965739;28;19926;-91
2021/08/28 08:29:55;;;;;;;;;;;;;;;;;;4963725;28;19926;-90
2021/08/28 08:32:41;;;;;;;;;;;;;;;;;;4963029;28;19933;-91
2021/08/28 08:35:09;;;;;;;;;;;;;;;;;;4962725;28;19929;-92
2021/08/28 08:37:39;;;;;;;;;;;;;;;;;;4965867;28;19944;-88
2021/08/28 08:40:08;;;;;;;;;;;;;;;;;;4955313;28;19926;-92
2021/08/28 08:42:42;;;;;;;;;;;;;;;;;;4980372;28;19930;-90
2021/08/28 08:45:11;;;;;;;;;;;;;;;;;;4958972;28;20310;-90
2021/08/28 08:47:39;;;;;;;;;;;;;;;;;;4966012;28;20001;-91
2021/08/28 08:50:07;;;;;;;;;;;;;;;;;;4977887;28;19910;-90
2021/08/28 08:52:47;;;;;;;;;;;;;;;;;;4973779;28;19932;-91
2021/08/28 08:55:52;;;;;;;;;;;;;;;;;;4966208;28;19926;-91
2021/08/28 08:58:23;;;;;;;;;;;;;;;;;;4970244;28;20456;-88
2021/08/28 09:01:02;;;;;;;;;;;;;;;;;;4953130;28;19930;-89
2021/08/28 09:03:50;;;;;;;;;;;;;;;;;;4967948;28;20341;-87
2021/08/28 09:06:19;;;;;;;;;;;;;;;;;;4950436;28;19926;-88
2021/08/28 09:08:49;;;;;;;;;;;;;;;;;;4958030;28;20398;-87
2021/08/28 09:11:21;;;;;;;;;;;;;;;;;;4948966;28;19926;-90
2021/08/28 09:13:50;;;;;;;;;;;;;;;;;;4966620;28;19926;-91
2021/08/28 09:16:29;;;;;;;;;;;;;;;;;;4973933;28;19925;-89
2021/08/28 09:18:57;;;;;;;;;;;;;;;;;;4967887;28;19926;-88
2021/08/28 09:21:30;;;;;;;;;;;;;;;;;;4969571;28;19926;-92
2021/08/28 09:23:59;;;;;;;;;;;;;;;;;;4966943;28;20387;-89
2021/08/28 09:26:27;;;;;;;;;;;;;;;;;;4955772;28;19926;-90
2021/08/28 09:28:59;;;;;;;;;;;;;;;;;;4959850;28;20390;-88
2021/08/28 09:31:40;;;;;;;;;;;;;;;;;;4969951;28;20424;-88
2021/08/28 09:34:22;;;;;;;;;;;;;;;;;;4951478;28;20420;-88
2021/08/28 09:36:54;;;;;;;;;;;;;;;;;;4950322;28;19930;-88
2021/08/28 09:39:23;;;;;;;;;;;;;;;;;;4959717;28;19930;-89
2021/08/28 09:41:55;;;;;;;;;;;;;;;;;;4957435;28;20311;-87
2021/08/28 09:44:24;;;;;;;;;;;;;;;;;;4952957;28;19926;-89
2021/08/28 09:46:52;;;;;;;;;;;;;;;;;;4966509;28;19926;-88
2021/08/28 09:49:23;;;;;;;;;;;;;;;;;;4961166;28;20309;-89
2021/08/28 09:51:51;;;;;;;;;;;;;;;;;;4957911;28;20403;-89
2021/08/28 09:54:21;;;;;;;;;;;;;;;;;;4963122;28;19926;-86
2021/08/28 09:56:59;;;;;;;;;;;;;;;;;;4952062;28;20326;-88
2021/08/28 09:59:29;;;;;;;;;;;;;;;;;;4972683;28;19933;-88
2021/08/28 10:01:57;;;;;;;;;;;;;;;;;;4972090;28;20385;-89
2021/08/28 10:04:25;;;;;;;;;;;;;;;;;;4952732;28;19926;-88
2021/08/28 10:06:54;;;;;;;;;;;;;;;;;;4965561;28;19926;-89
2021/08/28 10:09:22;;;;;;;;;;;;;;;;;;4955820;28;19926;-91
2021/08/28 10:15:14;;;;;;;;;;;;;;;;;;4975083;28;19934;-90
2021/08/28 10:17:42;;;;;;;;;;;;;;;;;;4963247;28;19934;-89
2021/08/28 10:20:11;;;;;;;;;;;;;;;;;;4969074;28;19930;-90
2021/08/28 10:22:42;;;;;;;;;;;;;;;;;;4954319;28;20018;-89
2021/08/28 10:25:12;;;;;;;;;;;;;;;;;;4951540;28;19933;-89
2021/08/28 10:27:40;;;;;;;;;;;;;;;;;;4954884;28;19926;-89
2021/08/28 10:30:09;;;;;;;;;;;;;;;;;;4962179;28;19926;-90
2021/08/28 10:32:39;;;;;;;;;;;;;;;;;;4945735;28;20294;-90
2021/08/28 10:35:08;;;;;;;;;;;;;;;;;;4965400;28;20337;-89
2021/08/28 10:37:36;;;;;;;;;;;;;;;;;;4971017;28;19926;-91
2021/08/28 10:40:07;;;;;;;;;;;;;;;;;;4966201;28;19933;-90
2021/08/28 10:42:36;;;;;;;;;;;;;;;;;;4955894;28;19926;-90
2021/08/28 10:45:04;;;;;;;;;;;;;;;;;;4949677;28;19925;-89
2021/08/28 10:47:48;;;;;;;;;;;;;;;;;;4964182;28;20643;-88
2021/08/28 10:50:16;;;;;;;;;;;;;;;;;;4953997;28;19926;-88
2021/08/28 10:52:49;;;;;;;;;;;;;;;;;;4957310;28;19926;-89
2021/08/28 10:55:18;;;;;;;;;;;;;;;;;;4956017;28;19926;-90
2021/08/28 10:57:46;;;;;;;;;;;;;;;;;;4980487;28;19937;-89
2021/08/28 11:00:15;;;;;;;;;;;;;;;;;;4971936;28;19925;-89
2021/08/28 11:02:58;;;;;;;;;;;;;;;;;;4964211;28;19933;-90
2021/08/28 11:05:28;;;;;;;;;;;;;;;;;;4986916;28;19925;-89
2021/08/28 11:07:56;;;;;;;;;;;;;;;;;;4952504;28;20410;-88
2021/08/28 11:10:24;;;;;;;;;;;;;;;;;;4969323;28;19926;-89
2021/08/28 11:12:54;;;;;;;;;;;;;;;;;;4961151;28;19926;-88
2021/08/28 11:15:49;;;;;;;;;;;;;;;;;;4968417;28;19929;-88
2021/08/28 11:18:36;;;;;;;;;;;;;;;;;;4964749;28;19926;-89
2021/08/28 11:21:09;;;;;;;;;;;;;;;;;;4959752;28;19941;-88
2021/08/28 11:23:39;;;;;;;;;;;;;;;;;;4967840;28;19957;-89
2021/08/28 11:26:07;;;;;;;;;;;;;;;;;;4957213;28;19933;-89
2021/08/28 11:28:41;;;;;;;;;;;;;;;;;;4954770;28;20364;-90
2021/08/28 11:31:10;;;;;;;;;;;;;;;;;;4960872;28;19932;-88
2021/08/28 11:33:39;;;;;;;;;;;;;;;;;;4954335;28;20329;-89
2021/08/28 11:36:18;;;;;;;;;;;;;;;;;;4959632;28;19926;-88
2021/08/28 11:38:47;;;;;;;;;;;;;;;;;;4959455;28;19926;-86
2021/08/28 11:41:18;;;;;;;;;;;;;;;;;;4964668;28;20321;-87
2021/08/28 11:43:47;;;;;;;;;;;;;;;;;;4961019;28;19926;-87
2021/08/28 11:46:15;;;;;;;;;;;;;;;;;;4963626;28;19933;-87
2021/08/28 11:48:44;;;;;;;;;;;;;;;;;;4968948;28;20714;-86
2021/08/28 11:51:14;;;;;;;;;;;;;;;;;;4950430;28;19926;-87
2021/08/28 11:53:42;;;;;;;;;;;;;;;;;;4956660;28;19925;-87
2021/08/28 11:56:15;;;;;;;;;;;;;;;;;;4964448;28;19933;-88
2021/08/28 11:58:51;;;;;;;;;;;;;;;;;;4955772;28;19936;-88
2021/08/28 12:01:30;;;;;;;;;;;;;;;;;;4971293;28;19926;-89
2021/08/28 12:04:00;;;;;;;;;;;;;;;;;;4955465;28;19933;-88
2021/08/28 12:06:31;;;;;;;;;;;;;;;;;;4954963;28;20522;-86
2021/08/28 12:08:59;;;;;;;;;;;;;;;;;;4961469;28;19926;-88
2021/08/28 12:11:28;;;;;;;;;;;;;;;;;;4954871;28;19927;-85
2021/08/28 12:13:56;;;;;;;;;;;;;;;;;;4974281;28;19933;-86
2021/08/28 12:16:25;;;;;;;;;;;;;;;;;;4958644;28;19926;-87
2021/08/28 12:18:58;;;;;;;;;;;;;;;;;;4951454;28;20291;-85
2021/08/28 12:21:26;;;;;;;;;;;;;;;;;;4956705;28;20271;-86
2021/08/28 12:23:55;;;;;;;;;;;;;;;;;;4962470;28;19930;-87
2021/08/28 12:26:23;;;;;;;;;;;;;;;;;;4952772;28;20311;-85
2021/08/28 12:28:53;;;;;;;;;;;;;;;;;;4953332;28;20390;-85
2021/08/28 12:31:22;;;;;;;;;;;;;;;;;;4955155;28;20402;-85
2021/08/28 12:33:50;;;;;;;;;;;;;;;;;;4943966;28;19926;-87
2021/08/28 12:36:28;;;;;;;;;;;;;;;;;;4959255;28;20315;-84
2021/08/28 12:39:08;;;;;;;;;;;;;;;;;;4962707;28;19933;-84
2021/08/28 12:41:37;;;;;;;;;;;;;;;;;;4963351;28;20141;-85
2021/08/28 12:44:05;;;;;;;;;;;;;;;;;;4951404;28;19937;-87
2021/08/28 12:46:34;;;;;;;;;;;;;;;;;;4969256;28;20324;-86
2021/08/28 12:49:12;;;;;;;;;;;;;;;;;;4955544;28;20287;-89
2021/08/28 12:51:48;;;;;;;;;;;;;;;;;;4971612;28;19926;-85
2021/08/28 12:54:21;;;;;;;;;;;;;;;;;;4966486;28;20391;-87
2021/08/28 12:56:50;;;;;;;;;;;;;;;;;;4966519;28;19926;-87
2021/08/28 12:59:19;;;;;;;;;;;;;;;;;;4956068;28;19933;-89
2021/08/28 13:01:54;;;;;;;;;;;;;;;;;;4971092;28;19926;-86
2021/08/28 13:04:28;;;;;;;;;;;;;;;;;;5006748;28;20394;-86
2021/08/28 13:07:13;;;;;;;;;;;;;;;;;;4958084;28;20394;-87
2021/08/28 13:09:50;;;;;;;;;;;;;;;;;;4951298;28;19933;-88
2021/08/28 13:12:19;;;;;;;;;;;;;;;;;;4956719;28;19933;-88
2021/08/28 13:14:50;;;;;;;;;;;;;;;;;;4961296;28;20306;-87
2021/08/28 13:17:25;;;;;;;;;;;;;;;;;;4957726;28;20002;-86
2021/08/28 13:20:04;;;;;;;;;;;;;;;;;;4952126;28;19934;-86
2021/08/28 13:22:34;;;;;;;;;;;;;;;;;;4955248;28;20420;-87
2021/08/28 13:25:04;;;;;;;;;;;;;;;;;;4958674;28;20374;-86
2021/08/28 13:27:32;;;;;;;;;;;;;;;;;;4958507;28;19937;-86
2021/08/28 13:30:14;;;;;;;;;;;;;;;;;;4958714;28;20394;-86
2021/08/28 13:32:52;;;;;;;;;;;;;;;;;;4954257;28;19926;-86
2021/08/28 13:35:20;;;;;;;;;;;;;;;;;;4951060;28;19933;-86
2021/08/28 13:37:48;;;;;;;;;;;;;;;;;;4954209;28;19925;-86
2021/08/28 13:40:18;;;;;;;;;;;;;;;;;;4959486;28;19937;-90
2021/08/28 13:42:47;;;;;;;;;;;;;;;;;;4963023;28;19930;-88
2021/08/28 13:45:16;;;;;;;;;;;;;;;;;;4956480;28;19930;-88
2021/08/28 13:47:45;;;;;;;;;;;;;;;;;;4950277;28;20405;-85
2021/08/28 13:50:14;;;;;;;;;;;;;;;;;;4954641;28;19926;-89
2021/08/28 13:52:42;;;;;;;;;;;;;;;;;;4960303;28;19925;-89
2021/08/28 13:55:10;;;;;;;;;;;;;;;;;;4950505;28;19926;-87
2021/08/28 13:57:40;;;;;;;;;;;;;;;;;;4975948;28;19926;-88
2021/08/28 14:00:09;;;;;;;;;;;;;;;;;;4961352;28;19930;-86
2021/08/28 14:02:40;;;;;;;;;;;;;;;;;;4950157;28;19933;-88
2021/08/28 14:05:09;;;;;;;;;;;;;;;;;;4948047;28;19934;-88
2021/08/28 14:07:37;;;;;;;;;;;;;;;;;;4953344;28;19926;-89
2021/08/28 14:10:07;;;;;;;;;;;;;;;;;;4943617;28;19937;-89
2021/08/28 14:12:35;;;;;;;;;;;;;;;;;;4955212;28;19949;-88
2021/08/28 14:15:05;;;;;;;;;;;;;;;;;;4980767;28;19933;-88
2021/08/28 14:17:33;;;;;;;;;;;;;;;;;;4953779;28;20394;-85
2021/08/28 14:20:01;;;;;;;;;;;;;;;;;;4958319;28;20425;-88
2021/08/28 14:22:30;;;;;;;;;;;;;;;;;;4943082;28;19926;-88
2021/08/28 14:24:58;;;;;;;;;;;;;;;;;;4975494;28;19933;-88
2021/08/28 14:27:27;;;;;;;;;;;;;;;;;;4959878;28;19933;-88
2021/08/28 14:29:55;;;;;;;;;;;;;;;;;;4959594;28;19926;-87
2021/08/28 14:32:25;;;;;;;;;;;;;;;;;;4965078;28;19926;-88
2021/08/28 14:34:53;;;;;;;;;;;;;;;;;;4992537;28;19926;-87
2021/08/28 14:37:21;;;;;;;;;;;;;;;;;;4975852;28;20309;-86
2021/08/28 14:39:49;;;;;;;;;;;;;;;;;;4967197;28;20404;-86
2021/08/28 14:42:17;;;;;;;;;;;;;;;;;;4940600;28;19926;-86
2021/08/28 14:44:45;;;;;;;;;;;;;;;;;;4957576;28;20413;-88
2021/08/28 14:47:16;;;;;;;;;;;;;;;;;;4958695;28;19927;-88
2021/08/28 14:49:46;;;;;;;;;;;;;;;;;;4943702;28;19926;-88
2021/08/28 14:52:14;;;;;;;;;;;;;;;;;;4941642;28;19926;-88
2021/08/28 14:54:44;;;;;;;;;;;;;;;;;;4940726;28;19948;-88
2021/08/28 14:57:12;;;;;;;;;;;;;;;;;;4955691;28;19926;-87
2021/08/28 14:59:49;;;;;;;;;;;;;;;;;;4960379;28;19926;-88
2021/08/28 15:02:18;;;;;;;;;;;;;;;;;;4956556;28;19926;-87
2021/08/28 15:04:54;;;;;;;;;;;;;;;;;;4951674;28;19930;-88
2021/08/28 15:07:23;;;;;;;;;;;;;;;;;;4960125;28;19926;-87
2021/08/28 15:09:51;;;;;;;;;;;;;;;;;;4959784;28;19934;-88
2021/08/28 15:12:20;;;;;;;;;;;;;;;;;;4959198;28;19933;-87
2021/08/28 15:14:48;;;;;;;;;;;;;;;;;;4959715;28;19932;-88
2021/08/28 15:17:16;;;;;;;;;;;;;;;;;;4959513;28;19941;-88
2021/08/28 15:19:45;;;;;;;;;;;;;;;;;;4940375;28;19926;-88
2021/08/28 15:22:15;;;;;;;;;;;;;;;;;;4940246;28;19933;-89
2021/08/28 15:24:43;;;;;;;;;;;;;;;;;;4946325;28;19933;-86
2021/08/28 15:27:18;;;;;;;;;;;;;;;;;;4955627;28;19933;-87
2021/08/28 15:29:47;;;;;;;;;;;;;;;;;;4964487;28;19925;-88
2021/08/28 15:32:15;;;;;;;;;;;;;;;;;;4970044;28;19926;-86
2021/08/28 15:34:43;;;;;;;;;;;;;;;;;;4973242;28;19997;-88
2021/08/28 15:37:11;;;;;;;;;;;;;;;;;;4980803;28;19926;-87
2021/08/28 15:39:41;;;;;;;;;;;;;;;;;;4981591;28;19925;-88
2021/08/28 15:42:09;;;;;;;;;;;;;;;;;;4986294;28;19926;-86
2021/08/28 15:44:40;;;;;;;;;;;;;;;;;;4959140;28;20283;-87
2021/08/28 15:47:12;;;;;;;;;;;;;;;;;;4950183;28;19926;-87
2021/08/28 15:49:40;;;;;;;;;;;;;;;;;;4962139;28;19932;-88
2021/08/28 15:52:09;;;;;;;;;;;;;;;;;;4959445;28;20424;-89
2021/08/28 15:54:37;;;;;;;;;;;;;;;;;;4980013;28;19926;-89
2021/08/28 15:57:06;;;;;;;;;;;;;;;;;;4967504;28;19932;-88
2021/08/28 15:59:38;;;;;;;;;;;;;;;;;;4961652;28;19926;-89
2021/08/28 16:02:06;;;;;;;;;;;;;;;;;;4958182;28;20414;-86
2021/08/28 16:04:34;;;;;;;;;;;;;;;;;;4960153;28;19933;-87
2021/08/28 16:07:03;;;;;;;;;;;;;;;;;;4972593;28;19926;-88
2021/08/28 16:09:31;;;;;;;;;;;;;;;;;;4962083;28;19926;-87
2021/08/28 16:11:59;;;;;;;;;;;;;;;;;;4983049;28;20300;-87
2021/08/28 16:14:30;;;;;;;;;;;;;;;;;;4959386;28;20310;-89
2021/08/28 16:17:17;;;;;;;;;;;;;;;;;;4960730;28;19929;-88
2021/08/28 16:19:46;;;;;;;;;;;;;;;;;;4950340;28;19925;-89
2021/08/28 16:22:14;;;;;;;;;;;;;;;;;;4955753;28;19926;-88
2021/08/28 16:24:42;;;;;;;;;;;;;;;;;;4978483;28;20322;-88
2021/08/28 16:27:10;;;;;;;;;;;;;;;;;;4961993;28;19934;-88
2021/08/28 16:29:43;;;;;;;;;;;;;;;;;;4961704;28;19929;-89
2021/08/28 16:32:19;;;;;;;;;;;;;;;;;;4956955;28;20306;-90
2021/08/28 16:34:48;;;;;;;;;;;;;;;;;;4966134;28;19926;-91
2021/08/28 16:37:16;;;;;;;;;;;;;;;;;;4958709;28;20326;-90
2021/08/28 16:39:45;;;;;;;;;;;;;;;;;;4967284;28;19932;-92
2021/08/28 16:42:31;;;;;;;;;;;;;;;;;;4962207;28;19926;-87
2021/08/28 16:44:59;;;;;;;;;;;;;;;;;;4962686;28;19953;-88
2021/08/28 16:47:37;;;;;;;;;;;;;;;;;;4958046;28;19926;-90
2021/08/28 16:50:07;;;;;;;;;;;;;;;;;;4942422;28;19926;-90
2021/08/28 16:52:38;;;;;;;;;;;;;;;;;;4958433;28;19933;-89
2021/08/28 16:55:06;;;;;;;;;;;;;;;;;;4958111;28;19926;-88
2021/08/28 16:57:36;;;;;;;;;;;;;;;;;;4957530;28;19933;-89
2021/08/28 17:00:10;;;;;;;;;;;;;;;;;;4958276;28;19926;-88
2021/08/28 17:02:38;;;;;;;;;;;;;;;;;;4958404;28;19933;-91
2021/08/28 17:05:09;;;;;;;;;;;;;;;;;;4957855;28;19930;-88
2021/08/28 17:07:39;;;;;;;;;;;;;;;;;;4957654;28;19949;-88
2021/08/28 17:10:09;;;;;;;;;;;;;;;;;;4957925;28;19926;-90
2021/08/28 17:12:37;;;;;;;;;;;;;;;;;;4957625;28;20418;-91
2021/08/28 17:15:06;;;;;;;;;;;;;;;;;;4957439;28;19933;-89
2021/08/28 17:17:34;;;;;;;;;;;;;;;;;;4958783;28;20321;-87
2021/08/28 17:20:15;;;;;;;;;;;;;;;;;;4959346;28;19933;-91
2021/08/28 17:22:44;;;;;;;;;;;;;;;;;;4942542;28;20386;-90
2021/08/28 17:25:12;;;;;;;;;;;;;;;;;;4973162;28;19925;-90
2021/08/28 17:27:41;;;;;;;;;;;;;;;;;;4979867;28;19930;-90
2021/08/28 17:30:16;;;;;;;;;;;;;;;;;;4965296;28;19926;-90
2021/08/28 17:32:45;;;;;;;;;;;;;;;;;;4977095;28;19930;-89
2021/08/28 17:35:13;;;;;;;;;;;;;;;;;;4960423;28;19933;-87
2021/08/28 17:37:41;;;;;;;;;;;;;;;;;;4960482;28;19953;-88
2021/08/28 17:40:13;;;;;;;;;;;;;;;;;;4976953;28;19925;-90
2021/08/28 17:42:43;;;;;;;;;;;;;;;;;;4960975;28;19935;-89
2021/08/28 17:45:11;;;;;;;;;;;;;;;;;;4958629;28;19936;-90
2021/08/28 17:47:41;;;;;;;;;;;;;;;;;;4934350;28;20394;-87
2021/08/28 17:50:16;;;;;;;;;;;;;;;;;;4931525;28;19934;-88
2021/08/28 17:52:55;;;;;;;;;;;;;;;;;;4935305;28;19927;-88
2021/08/28 17:55:23;;;;;;;;;;;;;;;;;;4946464;28;19933;-88
2021/08/28 17:57:53;;;;;;;;;;;;;;;;;;4937301;28;19937;-90
2021/08/28 18:00:21;;;;;;;;;;;;;;;;;;4933111;28;19926;-91
2021/08/28 18:02:49;;;;;;;;;;;;;;;;;;4931908;28;19937;-90
2021/08/28 18:05:18;;;;;;;;;;;;;;;;;;4927007;28;20394;-89
2021/08/28 18:07:46;;;;;;;;;;;;;;;;;;4934234;28;20409;-86
2021/08/28 18:10:15;;;;;;;;;;;;;;;;;;4927949;28;19926;-91
2021/08/28 18:12:44;;;;;;;;;;;;;;;;;;4927770;28;19934;-91
2021/08/28 18:15:14;;;;;;;;;;;;;;;;;;4935515;28;20342;-88
2021/08/28 18:17:42;;;;;;;;;;;;;;;;;;4942063;28;19942;-89
2021/08/28 18:20:11;;;;;;;;;;;;;;;;;;4943541;28;19985;-88
2021/08/28 18:22:40;;;;;;;;;;;;;;;;;;4931767;28;20337;-88
2021/08/28 18:25:08;;;;;;;;;;;;;;;;;;4932343;28;19926;-89
2021/08/28 18:27:37;;;;;;;;;;;;;;;;;;4935104;28;19927;-89
2021/08/28 18:30:05;;;;;;;;;;;;;;;;;;4934392;29;19926;-91
2021/08/28 18:32:35;;;;;;;;;;;;;;;;;;4938023;28;19933;-91
2021/08/28 18:35:05;;;;;;;;;;;;;;;;;;4922930;29;20303;-90
2021/08/28 18:37:34;;;;;;;;;;;;;;;;;;4938891;28;20399;-90
2021/08/28 18:40:02;;;;;;;;;;;;;;;;;;4940742;28;20422;-91
2021/08/28 18:42:31;;;;;;;;;;;;;;;;;;4940495;28;20488;-91
2021/08/28 18:44:59;;;;;;;;;;;;;;;;;;4940783;28;19930;-92
2021/08/28 18:47:27;;;;;;;;;;;;;;;;;;4956300;28;19926;-92
2021/08/28 18:49:57;;;;;;;;;;;;;;;;;;4941076;28;19933;-91
2021/08/28 18:52:25;;;;;;;;;;;;;;;;;;4943485;28;19933;-92
2021/08/28 18:54:56;;;;;;;;;;;;;;;;;;4946140;28;19937;-93
2021/08/28 18:57:24;;;;;;;;;;;;;;;;;;4960165;28;19938;-91
2021/08/28 18:59:52;;;;;;;;;;;;;;;;;;4959301;28;19925;-92
2021/08/28 19:02:21;;;;;;;;;;;;;;;;;;4960914;28;20402;-93
2021/08/28 19:04:50;;;;;;;;;;;;;;;;;;4959881;28;19926;-90
2021/08/28 19:07:19;;;;;;;;;;;;;;;;;;4950703;28;20313;-91
2021/08/28 19:09:47;;;;;;;;;;;;;;;;;;4943507;28;19926;-92
2021/08/28 19:12:16;;;;;;;;;;;;;;;;;;4944113;28;19926;-91
2021/08/28 19:14:51;;;;;;;;;;;;;;;;;;4944256;28;19930;-88
2021/08/28 19:17:19;;;;;;;;;;;;;;;;;;4944227;28;20413;-90
2021/08/28 19:19:48;;;;;;;;;;;;;;;;;;4944268;28;19926;-90
2021/08/28 19:22:25;;;;;;;;;;;;;;;;;;4944302;28;20467;-90
2021/08/28 19:24:56;;;;;;;;;;;;;;;;;;4949405;28;19926;-91
2021/08/28 19:27:24;;;;;;;;;;;;;;;;;;4949369;28;19933;-92
2021/08/28 19:29:59;;;;;;;;;;;;;;;;;;4946506;28;19984;-92
2021/08/28 19:32:27;;;;;;;;;;;;;;;;;;4947620;28;19976;-91
2021/08/28 19:34:55;;;;;;;;;;;;;;;;;;4955522;28;19930;-92
2021/08/28 19:37:25;;;;;;;;;;;;;;;;;;4946063;28;19926;-94
2021/08/28 19:40:19;;;;;;;;;;;;;;;;;;4927918;29;19956;-91
2021/08/28 19:42:47;;;;;;;;;;;;;;;;;;4928091;29;19926;-92
2021/08/28 19:45:16;;;;;;;;;;;;;;;;;;4948748;28;20371;-91
2021/08/28 19:47:44;;;;;;;;;;;;;;;;;;4944503;28;19948;-92
2021/08/28 19:50:12;;;;;;;;;;;;;;;;;;4942978;29;20563;-92
2021/08/28 19:52:42;;;;;;;;;;;;;;;;;;4939876;29;19950;-92
2021/08/28 19:55:11;;;;;;;;;;;;;;;;;;4925206;28;20295;-90
2021/08/28 19:57:42;;;;;;;;;;;;;;;;;;4926918;29;19933;-92
2021/08/28 20:00:11;;;;;;;;;;;;;;;;;;4924810;29;19927;-90
2021/08/28 20:02:39;;;;;;;;;;;;;;;;;;4924662;29;20438;-91
2021/08/28 20:05:08;;;;;;;;;;;;;;;;;;4924453;29;19979;-91
2021/08/28 20:07:36;;;;;;;;;;;;;;;;;;4923497;29;19931;-90
2021/08/28 20:10:06;;;;;;;;;;;;;;;;;;4923384;29;19926;-90
2021/08/28 20:12:34;;;;;;;;;;;;;;;;;;4939422;29;19934;-90
2021/08/28 20:15:03;;;;;;;;;;;;;;;;;;4939185;29;20311;-93
2021/08/28 20:17:32;;;;;;;;;;;;;;;;;;4921925;29;20395;-91
2021/08/28 20:20:01;;;;;;;;;;;;;;;;;;4938665;29;19934;-92
2021/08/28 20:22:30;;;;;;;;;;;;;;;;;;4939086;29;19933;-92
2021/08/28 20:24:59;;;;;;;;;;;;;;;;;;4938567;29;19937;-93
2021/08/28 20:27:28;;;;;;;;;;;;;;;;;;4938539;29;19927;-92
2021/08/28 20:29:57;;;;;;;;;;;;;;;;;;4939153;29;19927;-92
2021/08/28 20:32:26;;;;;;;;;;;;;;;;;;4923238;29;19953;-90
2021/08/28 20:34:54;;;;;;;;;;;;;;;;;;4938778;29;19930;-92
2021/08/28 20:37:23;;;;;;;;;;;;;;;;;;4923346;29;19934;-91
2021/08/28 20:39:51;;;;;;;;;;;;;;;;;;4938679;29;19930;-91
2021/08/28 20:42:19;;;;;;;;;;;;;;;;;;4939150;29;19926;-91
2021/08/28 20:44:49;;;;;;;;;;;;;;;;;;4939409;29;19934;-92
2021/08/28 20:47:17;;;;;;;;;;;;;;;;;;4942050;28;19933;-91
2021/08/28 20:49:45;;;;;;;;;;;;;;;;;;4942352;28;19934;-91
2021/08/28 20:52:13;;;;;;;;;;;;;;;;;;4938311;29;19930;-92
2021/08/28 20:54:42;;;;;;;;;;;;;;;;;;4923009;29;19926;-92
2021/08/28 20:57:10;;;;;;;;;;;;;;;;;;4923037;29;19927;-91
2021/08/28 20:59:39;;;;;;;;;;;;;;;;;;4922551;29;19933;-91
2021/08/28 21:02:08;;;;;;;;;;;;;;;;;;4922781;29;19926;-91
2021/08/28 21:04:36;;;;;;;;;;;;;;;;;;4938167;29;19927;-92
2021/08/28 21:07:05;;;;;;;;;;;;;;;;;;4922662;29;19930;-91
2021/08/28 21:09:34;;;;;;;;;;;;;;;;;;4941095;28;19926;-92
2021/08/28 21:12:03;;;;;;;;;;;;;;;;;;4930802;29;19930;-88
2021/08/28 21:14:31;;;;;;;;;;;;;;;;;;4922083;29;19927;-90
2021/08/28 21:16:59;;;;;;;;;;;;;;;;;;4923011;29;19926;-91
2021/08/28 21:19:29;;;;;;;;;;;;;;;;;;4921959;29;20306;-91
2021/08/28 21:21:57;;;;;;;;;;;;;;;;;;4923116;29;19927;-89
2021/08/28 21:24:27;;;;;;;;;;;;;;;;;;4923386;29;19930;-92
2021/08/28 21:26:55;;;;;;;;;;;;;;;;;;4923167;29;19927;-87
2021/08/28 21:29:23;;;;;;;;;;;;;;;;;;4922216;29;20318;-87
2021/08/28 21:31:52;;;;;;;;;;;;;;;;;;4937623;29;20386;-89
2021/08/28 21:34:20;;;;;;;;;;;;;;;;;;4947142;28;19926;-92
2021/08/28 21:36:50;;;;;;;;;;;;;;;;;;4947434;28;19910;-94
2021/08/28 21:39:20;;;;;;;;;;;;;;;;;;4946354;28;19999;-90
2021/08/28 21:41:49;;;;;;;;;;;;;;;;;;4941610;28;20322;-90
2021/08/28 21:44:17;;;;;;;;;;;;;;;;;;4941151;28;19941;-89
2021/08/28 21:46:45;;;;;;;;;;;;;;;;;;4941083;28;19930;-89
2021/08/28 21:49:13;;;;;;;;;;;;;;;;;;4940394;28;19933;-88
2021/08/28 21:51:42;;;;;;;;;;;;;;;;;;4940644;28;19926;-89
2021/08/28 21:54:11;;;;;;;;;;;;;;;;;;4940733;28;19927;-89
2021/08/28 21:56:39;;;;;;;;;;;;;;;;;;4940312;28;19926;-88
2021/08/28 21:59:08;;;;;;;;;;;;;;;;;;4940724;28;19926;-88
2021/08/28 22:01:36;;;;;;;;;;;;;;;;;;4940127;28;19927;-88
2021/08/28 22:04:04;;;;;;;;;;;;;;;;;;4940461;28;19926;-89
2021/08/28 22:06:33;;;;;;;;;;;;;;;;;;4940144;28;20314;-88
2021/08/28 22:09:01;;;;;;;;;;;;;;;;;;4940647;28;19926;-90
2021/08/28 22:11:31;;;;;;;;;;;;;;;;;;4940558;28;19926;-91
2021/08/28 22:13:59;;;;;;;;;;;;;;;;;;4940334;28;19926;-91
2021/08/28 22:16:27;;;;;;;;;;;;;;;;;;4940082;28;20398;-87
2021/08/28 22:18:55;;;;;;;;;;;;;;;;;;4940453;28;20311;-89
2021/08/28 22:21:24;;;;;;;;;;;;;;;;;;4940363;28;19926;-89
2021/08/28 22:23:52;;;;;;;;;;;;;;;;;;4940098;28;19926;-91
2021/08/28 22:26:20;;;;;;;;;;;;;;;;;;4955997;28;19926;-90
2021/08/28 22:28:50;;;;;;;;;;;;;;;;;;4940818;28;20398;-88
2021/08/28 22:31:18;;;;;;;;;;;;;;;;;;4940381;28;19933;-87
2021/08/28 22:33:47;;;;;;;;;;;;;;;;;;4940264;28;19926;-88
2021/08/28 22:36:15;;;;;;;;;;;;;;;;;;4940562;28;20132;-89
2021/08/28 22:38:44;;;;;;;;;;;;;;;;;;4940042;28;19926;-90
2021/08/28 22:41:12;;;;;;;;;;;;;;;;;;4939497;28;19938;-91
2021/08/28 22:43:41;;;;;;;;;;;;;;;;;;4940590;28;20306;-88
2021/08/28 22:46:10;;;;;;;;;;;;;;;;;;4939917;28;19929;-91
2021/08/28 22:48:39;;;;;;;;;;;;;;;;;;4939844;28;19926;-90
2021/08/28 22:51:07;;;;;;;;;;;;;;;;;;4940289;28;20305;-89
2021/08/28 22:53:35;;;;;;;;;;;;;;;;;;4956202;28;20291;-91
2021/08/28 22:56:04;;;;;;;;;;;;;;;;;;4939910;28;20325;-89
2021/08/28 22:58:33;;;;;;;;;;;;;;;;;;4940637;28;20314;-90
2021/08/28 23:01:01;;;;;;;;;;;;;;;;;;4940270;28;19926;-90
2021/08/28 23:03:31;;;;;;;;;;;;;;;;;;4940179;28;19941;-91
2021/08/28 23:05:59;;;;;;;;;;;;;;;;;;4940000;28;20403;-88
2021/08/28 23:08:28;;;;;;;;;;;;;;;;;;4941242;28;19926;-92
2021/08/28 23:10:56;;;;;;;;;;;;;;;;;;4958948;28;20570;-88
2021/08/28 23:13:24;;;;;;;;;;;;;;;;;;4959076;28;20110;-89
2021/08/28 23:15:52;;;;;;;;;;;;;;;;;;4958976;28;19949;-89
2021/08/28 23:18:21;;;;;;;;;;;;;;;;;;4959006;28;19925;-91
2021/08/28 23:20:50;;;;;;;;;;;;;;;;;;4958995;28;19933;-92
2021/08/28 23:23:25;;;;;;;;;;;;;;;;;;4959263;28;20348;-90
2021/08/28 23:25:54;;;;;;;;;;;;;;;;;;4958950;28;19926;-88
2021/08/28 23:28:22;;;;;;;;;;;;;;;;;;4975625;28;19926;-88
2021/08/28 23:30:50;;;;;;;;;;;;;;;;;;4959285;28;19926;-89
2021/08/28 23:33:19;;;;;;;;;;;;;;;;;;4958779;28;19944;-89
2021/08/28 23:35:47;;;;;;;;;;;;;;;;;;4958881;28;19930;-90
2021/08/28 23:38:17;;;;;;;;;;;;;;;;;;4958958;28;19933;-91
2021/08/28 23:40:45;;;;;;;;;;;;;;;;;;4958620;28;19925;-89
2021/08/28 23:43:13;;;;;;;;;;;;;;;;;;4974217;28;19925;-91
2021/08/28 23:45:41;;;;;;;;;;;;;;;;;;4958698;28;19926;-90
2021/08/28 23:48:10;;;;;;;;;;;;;;;;;;4958571;28;19933;-88
2021/08/28 23:50:38;;;;;;;;;;;;;;;;;;4958649;28;20325;-90
2021/08/28 23:53:06;;;;;;;;;;;;;;;;;;4959564;28;19933;-89
2021/08/28 23:55:36;;;;;;;;;;;;;;;;;;4962073;28;19925;-91
2021/08/28 23:58:06;;;;;;;;;;;;;;;;;;4978184;28;19925;-89
